createdAt,value
2023-02-16T00:00:58.740Z,12.80
2023-02-16T00:03:31.452Z,12.70
2023-02-16T00:06:04.356Z,12.70
2023-02-16T00:08:36.953Z,12.80
2023-02-16T00:11:40.575Z,12.70
2023-02-16T00:14:15.354Z,12.70
2023-02-16T00:16:48.037Z,12.70
2023-02-16T00:19:24.093Z,12.70
2023-02-16T00:21:58.780Z,12.70
2023-02-16T00:24:32.086Z,12.70
2023-02-16T00:27:15.675Z,12.70
2023-02-16T00:29:48.101Z,12.60
2023-02-16T00:32:20.797Z,12.60
2023-02-16T00:34:53.532Z,12.60
2023-02-16T00:37:27.847Z,12.60
2023-02-16T00:40:04.078Z,12.60
2023-02-16T00:42:38.456Z,12.60
2023-02-16T00:45:18.405Z,12.60
2023-02-16T00:47:52.699Z,12.60
2023-02-16T00:50:35.351Z,12.60
2023-02-16T00:53:07.934Z,12.60
2023-02-16T00:55:42.134Z,12.50
2023-02-16T00:58:23.774Z,12.50
2023-02-16T01:01:01.805Z,12.50
2023-02-16T01:03:34.690Z,12.50
2023-02-16T01:06:31.142Z,12.50
2023-02-16T01:09:32.033Z,12.50
2023-02-16T01:12:12.804Z,12.50
2023-02-16T01:14:51.540Z,12.50
2023-02-16T01:17:25.268Z,12.50
2023-02-16T01:19:59.695Z,12.40
2023-02-16T01:22:33.753Z,12.40
2023-02-16T01:25:06.840Z,12.40
2023-02-16T01:27:40.155Z,12.40
2023-02-16T01:30:16.587Z,12.40
2023-02-16T01:32:53.728Z,12.40
2023-02-16T01:35:31.648Z,12.40
2023-02-16T01:38:04.402Z,12.40
2023-02-16T01:40:46.479Z,12.30
2023-02-16T01:43:30.612Z,12.40
2023-02-16T01:46:12.378Z,12.40
2023-02-16T01:48:45.044Z,12.30
2023-02-16T01:51:25.164Z,12.30
2023-02-16T01:54:30.018Z,12.30
2023-02-16T01:57:21.322Z,12.30
2023-02-16T01:59:53.843Z,12.30
2023-02-16T02:02:35.118Z,12.30
2023-02-16T02:05:37.159Z,12.20
2023-02-16T02:08:16.783Z,12.20
2023-02-16T02:11:12.893Z,12.20
2023-02-16T02:13:53.288Z,12.20
2023-02-16T02:16:28.907Z,12.20
2023-02-16T02:19:01.862Z,12.20
2023-02-16T02:22:13.842Z,12.20
2023-02-16T02:25:04.647Z,12.20
2023-02-16T02:27:45.057Z,12.10
2023-02-16T02:30:49.725Z,12.10
2023-02-16T02:33:44.272Z,12.10
2023-02-16T02:36:34.912Z,12.10
2023-02-16T02:39:30.726Z,12.10
2023-02-16T02:42:30.746Z,12.00
2023-02-16T02:45:25.584Z,12.00
2023-02-16T02:47:58.867Z,12.00
2023-02-16T02:51:19.766Z,12.00
2023-02-16T02:54:28.520Z,12.00
2023-02-16T02:57:39.823Z,11.90
2023-02-16T03:00:40.285Z,11.90
2023-02-16T03:03:34.150Z,11.90
2023-02-16T03:06:07.033Z,11.90
2023-02-16T03:08:43.292Z,11.80
2023-02-16T03:11:46.978Z,11.80
2023-02-16T03:14:32.647Z,11.80
2023-02-16T03:17:29.122Z,11.80
2023-02-16T03:20:25.360Z,11.80
2023-02-16T03:23:16.990Z,11.70
2023-02-16T03:26:10.633Z,11.70
2023-02-16T03:29:03.780Z,11.70
2023-02-16T03:31:41.769Z,11.70
2023-02-16T03:34:15.393Z,11.70
2023-02-16T03:36:50.802Z,11.70
2023-02-16T03:39:25.537Z,11.60
2023-02-16T03:41:58.596Z,11.60
2023-02-16T03:44:31.126Z,11.60
2023-02-16T03:47:03.805Z,11.60
2023-02-16T03:49:36.442Z,11.60
2023-02-16T03:52:09.077Z,11.60
2023-02-16T03:54:41.708Z,11.60
2023-02-16T03:57:14.545Z,11.60
2023-02-16T03:59:47.239Z,11.50
2023-02-16T04:02:20.512Z,11.50
2023-02-16T04:04:53.135Z,11.50
2023-02-16T04:07:25.848Z,11.50
2023-02-16T04:09:58.734Z,11.50
2023-02-16T04:12:37.112Z,11.50
2023-02-16T04:15:18.610Z,11.50
2023-02-16T04:17:51.673Z,11.50
2023-02-16T04:20:30.457Z,11.40
2023-02-16T04:23:03.714Z,11.40
2023-02-16T04:25:36.423Z,11.40
2023-02-16T04:28:09.014Z,11.40
2023-02-16T04:30:41.733Z,11.40
2023-02-16T04:33:14.435Z,11.40
2023-02-16T04:35:47.088Z,11.40
2023-02-16T04:38:19.634Z,11.40
2023-02-16T04:40:52.458Z,11.40
2023-02-16T04:43:25.131Z,11.40
2023-02-16T04:45:59.641Z,11.40
2023-02-16T04:48:32.349Z,11.40
2023-02-16T04:51:06.163Z,11.40
2023-02-16T04:53:38.834Z,11.40
2023-02-16T04:59:09.173Z,11.30
2023-02-16T05:01:43.104Z,11.30
2023-02-16T05:04:16.917Z,11.30
2023-02-16T05:06:49.519Z,11.30
2023-02-16T05:09:22.236Z,11.30
2023-02-16T05:12:13.850Z,11.30
2023-02-16T05:14:46.720Z,11.30
2023-02-16T05:17:22.684Z,11.20
2023-02-16T05:19:58.832Z,11.20
2023-02-16T05:22:34.775Z,11.20
2023-02-16T05:25:08.479Z,11.20
2023-02-16T05:27:41.042Z,11.20
2023-02-16T05:30:14.598Z,11.20
2023-02-16T05:32:48.173Z,11.20
2023-02-16T05:35:20.909Z,11.20
2023-02-16T05:37:53.471Z,11.20
2023-02-16T05:40:27.618Z,11.20
2023-02-16T05:43:00.316Z,11.20
2023-02-16T05:45:32.991Z,11.20
2023-02-16T05:48:05.675Z,11.20
2023-02-16T05:50:38.354Z,11.20
2023-02-16T05:53:35.797Z,11.20
2023-02-16T05:56:09.095Z,11.20
2023-02-16T05:58:41.495Z,11.20
2023-02-16T06:01:14.481Z,11.30
2023-02-16T06:03:47.435Z,11.20
2023-02-16T06:06:20.240Z,11.20
2023-02-16T06:08:53.237Z,11.30
2023-02-16T06:11:38.092Z,11.30
2023-02-16T06:14:21.299Z,11.40
2023-02-16T06:16:55.104Z,11.50
2023-02-16T06:19:27.759Z,11.70
2023-02-16T06:22:00.354Z,11.80
2023-02-16T06:24:33.747Z,11.90
2023-02-16T06:27:06.552Z,12.10
2023-02-16T06:29:39.359Z,12.20
2023-02-16T06:32:12.125Z,12.30
2023-02-16T06:34:44.831Z,12.50
2023-02-16T06:37:17.466Z,12.60
2023-02-16T06:39:50.151Z,12.80
2023-02-16T06:42:22.863Z,12.90
2023-02-16T06:44:55.502Z,13.00
2023-02-16T06:47:31.050Z,13.20
2023-02-16T06:50:05.076Z,13.30
2023-02-16T06:52:38.116Z,13.40
2023-02-16T06:55:10.804Z,13.50
2023-02-16T06:57:43.408Z,13.70
2023-02-16T07:00:16.846Z,13.80
2023-02-16T07:02:50.609Z,13.90
2023-02-16T07:05:23.728Z,14.00
2023-02-16T07:07:56.537Z,14.10
2023-02-16T07:10:40.397Z,14.20
2023-02-16T07:13:20.457Z,14.30
2023-02-16T07:15:53.225Z,14.40
2023-02-16T07:18:26.003Z,14.50
2023-02-16T07:21:04.903Z,14.60
2023-02-16T07:23:54.792Z,14.70
2023-02-16T07:26:43.673Z,14.80
2023-02-16T07:29:26.780Z,14.80
2023-02-16T07:32:05.692Z,14.90
2023-02-16T07:34:47.168Z,15.00
2023-02-16T07:37:32.350Z,15.10
2023-02-16T07:40:34.076Z,15.20
2023-02-16T07:43:19.203Z,15.30
2023-02-16T07:46:31.665Z,15.40
2023-02-16T07:51:56.121Z,15.50
2023-02-16T07:54:28.860Z,15.70
2023-02-16T07:57:01.583Z,15.70
2023-02-16T07:59:34.404Z,15.70
2023-02-16T08:02:07.610Z,15.80
2023-02-16T08:04:41.316Z,15.80
2023-02-16T08:07:17.633Z,15.90
2023-02-16T08:09:50.719Z,16.00
2023-02-16T08:12:23.524Z,16.00
2023-02-16T08:14:56.017Z,16.10
2023-02-16T08:17:28.650Z,16.10
2023-02-16T08:20:01.333Z,16.20
2023-02-16T08:22:33.921Z,16.30
2023-02-16T08:25:07.230Z,16.30
2023-02-16T08:27:42.724Z,16.40
2023-02-16T08:30:18.754Z,16.50
2023-02-16T08:32:52.045Z,16.60
2023-02-16T08:35:24.493Z,16.60
2023-02-16T08:37:57.200Z,16.70
2023-02-16T08:40:30.303Z,16.80
2023-02-16T08:43:02.901Z,16.90
2023-02-16T08:45:35.605Z,17.00
2023-02-16T08:48:10.081Z,17.10
2023-02-16T08:50:53.960Z,17.20
2023-02-16T08:53:28.180Z,17.30
2023-02-16T08:56:03.730Z,17.30
2023-02-16T08:58:37.536Z,17.40
2023-02-16T09:01:12.055Z,17.50
2023-02-16T09:03:46.424Z,17.50
2023-02-16T09:06:21.898Z,17.60
2023-02-16T09:08:57.199Z,17.60
2023-02-16T09:11:29.852Z,17.70
2023-02-16T09:14:04.185Z,17.70
2023-02-16T09:16:44.176Z,17.70
2023-02-16T09:19:19.640Z,17.80
2023-02-16T09:21:52.398Z,17.90
2023-02-16T09:24:27.138Z,17.90
2023-02-16T09:26:59.964Z,18.00
2023-02-16T09:29:36.899Z,18.00
2023-02-16T09:32:10.478Z,18.10
2023-02-16T09:34:45.080Z,18.10
2023-02-16T09:37:17.756Z,18.20
2023-02-16T09:39:50.777Z,18.20
2023-02-16T09:43:03.732Z,18.20
2023-02-16T09:45:46.264Z,18.30
2023-02-16T09:48:33.741Z,18.30
2023-02-16T09:51:12.173Z,18.40
2023-02-16T09:53:55.443Z,18.40
2023-02-16T09:56:34.937Z,18.50
2023-02-16T09:59:35.678Z,18.50
2023-02-16T10:02:27.371Z,18.60
2023-02-16T10:05:05.716Z,18.60
2023-02-16T10:08:00.506Z,18.60
2023-02-16T10:10:58.627Z,18.70
2023-02-16T10:14:28.192Z,18.70
2023-02-16T10:17:31.483Z,18.70
2023-02-16T10:20:28.158Z,18.80
2023-02-16T10:23:23.471Z,18.80
2023-02-16T10:26:26.202Z,18.80
2023-02-16T10:29:09.100Z,18.70
2023-02-16T10:31:47.861Z,18.70
2023-02-16T10:34:55.585Z,18.70
2023-02-16T10:37:55.212Z,18.60
2023-02-16T10:40:48.576Z,18.50
2023-02-16T10:44:06.265Z,18.40
2023-02-16T10:46:47.469Z,18.40
2023-02-16T10:49:21.285Z,18.40
2023-02-16T10:51:56.788Z,18.40
2023-02-16T10:54:31.577Z,18.50
2023-02-16T10:57:07.853Z,18.50
2023-02-16T10:59:45.856Z,18.50
2023-02-16T11:02:27.949Z,18.50
2023-02-16T11:05:02.026Z,18.50
2023-02-16T11:07:34.548Z,18.40
2023-02-16T11:10:37.462Z,18.40
2023-02-16T11:13:27.564Z,18.40
2023-02-16T11:16:11.188Z,18.30
2023-02-16T11:18:49.919Z,18.30
2023-02-16T11:21:48.197Z,18.20
2023-02-16T11:24:34.137Z,18.20
2023-02-16T11:27:19.871Z,18.10
2023-02-16T11:30:24.390Z,18.00
2023-02-16T11:32:57.282Z,18.00
2023-02-16T11:35:33.124Z,17.90
2023-02-16T11:38:06.730Z,17.90
2023-02-16T11:40:39.472Z,17.90
2023-02-16T11:43:18.934Z,17.80
2023-02-16T11:46:15.120Z,17.80
2023-02-16T11:48:48.408Z,17.70
2023-02-16T11:51:33.827Z,17.60
2023-02-16T11:54:16.760Z,17.50
2023-02-16T11:57:05.088Z,17.50
2023-02-16T11:59:39.922Z,17.40
2023-02-16T12:02:19.054Z,17.40
2023-02-16T12:05:08.882Z,17.40
2023-02-16T12:08:15.847Z,17.40
2023-02-16T12:11:16.170Z,17.40
2023-02-16T12:14:02.475Z,17.30
2023-02-16T12:17:09.673Z,17.30
2023-02-16T12:19:48.669Z,17.30
2023-02-16T12:22:33.927Z,17.30
2023-02-16T12:25:19.115Z,17.30
2023-02-16T12:28:25.553Z,17.20
2023-02-16T12:31:26.781Z,17.20
2023-02-16T12:34:24.197Z,17.20
2023-02-16T12:37:14.637Z,17.20
2023-02-16T12:40:12.157Z,17.10
2023-02-16T12:42:55.441Z,17.10
2023-02-16T12:45:33.686Z,17.10
2023-02-16T12:48:27.719Z,17.10
2023-02-16T12:51:04.034Z,17.10
2023-02-16T12:53:42.620Z,17.10
2023-02-16T12:56:26.297Z,17.10
2023-02-16T12:59:26.058Z,17.10
2023-02-16T13:02:40.850Z,17.10
2023-02-16T13:05:25.281Z,17.10
2023-02-16T13:08:16.132Z,17.10
2023-02-16T13:11:03.678Z,17.10
2023-02-16T13:13:38.062Z,17.10
2023-02-16T13:16:49.258Z,17.10
2023-02-16T13:19:22.388Z,17.10
2023-02-16T13:22:13.757Z,17.10
2023-02-16T13:25:33.860Z,17.10
2023-02-16T13:28:25.650Z,17.10
2023-02-16T13:31:17.351Z,17.00
2023-02-16T13:33:53.077Z,17.00
2023-02-16T13:36:53.106Z,17.00
2023-02-16T13:39:37.408Z,17.10
2023-02-16T13:42:29.919Z,17.00
2023-02-16T13:45:25.841Z,17.00
2023-02-16T13:48:00.369Z,17.00
2023-02-16T13:50:34.999Z,17.00
2023-02-16T13:53:21.847Z,17.00
2023-02-16T13:56:17.949Z,17.00
2023-02-16T13:58:52.547Z,16.90
2023-02-16T14:01:43.334Z,16.90
2023-02-16T14:04:27.807Z,16.80
2023-02-16T14:07:09.916Z,16.80
2023-02-16T14:09:42.596Z,16.70
2023-02-16T14:12:22.063Z,16.70
2023-02-16T14:14:55.329Z,16.60
2023-02-16T14:17:29.544Z,16.50
2023-02-16T14:20:30.050Z,16.50
2023-02-16T14:23:02.863Z,16.50
2023-02-16T14:25:38.957Z,16.40
2023-02-16T14:28:23.699Z,16.40
2023-02-16T14:31:02.487Z,16.40
2023-02-16T14:33:47.878Z,16.40
2023-02-16T14:36:24.461Z,16.30
2023-02-16T14:38:59.269Z,16.30
2023-02-16T14:41:33.712Z,16.20
2023-02-16T14:44:06.292Z,16.20
2023-02-16T14:46:59.197Z,16.20
2023-02-16T14:49:46.486Z,16.20
2023-02-16T14:52:52.978Z,16.20
2023-02-16T14:56:26.696Z,16.10
2023-02-16T14:59:31.170Z,16.10
2023-02-16T15:02:41.011Z,16.00
2023-02-16T15:05:22.916Z,16.00
2023-02-16T15:08:17.356Z,16.00
2023-02-16T15:10:59.236Z,16.00
2023-02-16T15:13:38.629Z,16.00
2023-02-16T15:16:20.512Z,15.90
2023-02-16T15:18:59.429Z,16.00
2023-02-16T15:21:39.142Z,15.90
2023-02-16T15:24:32.427Z,16.00
2023-02-16T15:27:26.135Z,15.90
2023-02-16T15:30:14.049Z,15.90
2023-02-16T15:33:00.834Z,15.90
2023-02-16T15:35:48.098Z,15.90
2023-02-16T15:38:35.119Z,15.80
2023-02-16T15:41:15.611Z,15.80
2023-02-16T15:43:52.512Z,15.80
2023-02-16T15:46:40.466Z,15.80
2023-02-16T15:49:14.164Z,15.80
2023-02-16T15:52:21.819Z,15.70
2023-02-16T15:54:56.601Z,15.70
2023-02-16T15:57:38.233Z,15.70
2023-02-16T16:00:22.108Z,15.70
2023-02-16T16:02:58.721Z,15.70
2023-02-16T16:05:36.608Z,15.70
2023-02-16T16:08:17.943Z,15.60
2023-02-16T16:10:50.791Z,15.60
2023-02-16T16:16:37.048Z,15.60
2023-02-16T16:19:19.937Z,15.60
2023-02-16T16:21:54.722Z,15.60
2023-02-16T16:24:39.192Z,15.60
2023-02-16T16:27:13.722Z,15.50
2023-02-16T16:29:48.364Z,15.50
2023-02-16T16:32:22.774Z,15.50
2023-02-16T16:34:56.911Z,15.50
2023-02-16T16:37:34.140Z,15.50
2023-02-16T16:40:09.318Z,15.50
2023-02-16T16:43:07.780Z,15.40
2023-02-16T16:45:44.542Z,15.40
2023-02-16T16:48:28.307Z,15.40
2023-02-16T16:51:14.982Z,15.40
2023-02-16T16:54:07.210Z,15.40
2023-02-16T16:56:41.623Z,15.30
2023-02-16T16:59:14.342Z,15.30
2023-02-16T17:01:50.472Z,15.30
2023-02-16T17:04:23.189Z,15.30
2023-02-16T17:06:55.894Z,15.30
2023-02-16T17:09:28.426Z,15.30
2023-02-16T17:12:02.224Z,15.30
2023-02-16T17:14:34.947Z,15.20
2023-02-16T17:17:09.271Z,15.20
2023-02-16T17:19:42.497Z,15.20
2023-02-16T17:22:33.814Z,15.20
2023-02-16T17:25:07.338Z,15.20
2023-02-16T17:27:39.925Z,15.10
2023-02-16T17:30:38.133Z,15.10
2023-02-16T17:33:11.362Z,15.10
2023-02-16T17:35:43.951Z,15.10
2023-02-16T17:38:22.441Z,15.10
2023-02-16T17:40:58.363Z,15.00
2023-02-16T17:43:55.581Z,15.00
2023-02-16T17:46:32.245Z,15.00
2023-02-16T17:49:04.932Z,14.90
2023-02-16T17:51:37.953Z,15.00
2023-02-16T17:54:10.763Z,14.90
2023-02-16T17:56:47.215Z,14.90
2023-02-16T17:59:20.985Z,14.90
2023-02-16T18:01:54.169Z,14.90
2023-02-16T18:04:26.782Z,14.90
2023-02-16T18:06:59.459Z,14.80
2023-02-16T18:09:32.074Z,14.80
2023-02-16T18:12:04.910Z,14.80
2023-02-16T18:14:40.152Z,14.80
2023-02-16T18:17:13.649Z,14.70
2023-02-16T18:19:46.306Z,14.70
2023-02-16T18:22:29.392Z,14.70
2023-02-16T18:25:02.110Z,14.70
2023-02-16T18:27:34.942Z,14.70
2023-02-16T18:30:08.758Z,14.60
2023-02-16T18:32:42.166Z,14.60
2023-02-16T18:35:15.381Z,14.60
2023-02-16T18:38:02.743Z,14.60
2023-02-16T18:40:35.620Z,14.50
2023-02-16T18:43:10.070Z,14.50
2023-02-16T18:45:43.372Z,14.50
2023-02-16T18:48:16.169Z,14.50
2023-02-16T18:50:49.154Z,14.40
2023-02-16T18:53:22.152Z,14.40
2023-02-16T18:55:54.625Z,14.40
2023-02-16T18:58:27.248Z,14.40
2023-02-16T19:00:59.993Z,14.40
2023-02-16T19:03:32.748Z,14.30
2023-02-16T19:06:06.014Z,14.30
2023-02-16T19:08:38.498Z,14.30
2023-02-16T19:11:11.098Z,14.20
2023-02-16T19:13:44.226Z,14.20
2023-02-16T19:16:17.992Z,14.20
2023-02-16T19:18:50.609Z,14.20
2023-02-16T19:21:24.671Z,14.20
2023-02-16T19:23:57.280Z,14.20
2023-02-16T19:26:30.073Z,14.10
2023-02-16T19:29:02.770Z,14.10
2023-02-16T19:31:35.935Z,14.10
2023-02-16T19:34:08.620Z,14.10
2023-02-16T19:36:41.259Z,14.00
2023-02-16T19:39:13.827Z,14.00
2023-02-16T19:41:46.466Z,14.00
2023-02-16T19:44:22.040Z,14.00
2023-02-16T19:46:54.874Z,14.00
2023-02-16T19:49:29.919Z,14.00
2023-02-16T19:52:04.928Z,14.00
2023-02-16T19:54:52.539Z,14.00
2023-02-16T19:57:25.220Z,14.00
2023-02-16T19:59:57.940Z,14.00
2023-02-16T20:02:30.580Z,14.00
2023-02-16T20:05:06.202Z,14.00
2023-02-16T20:07:38.720Z,13.90
2023-02-16T20:10:11.427Z,13.90
2023-02-16T20:12:44.278Z,13.90
2023-02-16T20:15:17.228Z,13.90
2023-02-16T20:17:50.020Z,13.90
2023-02-16T20:20:22.700Z,13.80
2023-02-16T20:22:55.246Z,13.80
2023-02-16T20:25:27.998Z,13.80
2023-02-16T20:28:00.526Z,13.80
2023-02-16T20:30:33.068Z,13.80
2023-02-16T20:33:05.720Z,13.70
2023-02-16T20:35:38.382Z,13.70
2023-02-16T20:38:10.991Z,13.70
2023-02-16T20:40:44.216Z,13.70
2023-02-16T20:43:19.388Z,13.70
2023-02-16T20:45:52.043Z,13.60
2023-02-16T20:48:25.056Z,13.60
2023-02-16T20:50:59.327Z,13.60
2023-02-16T20:53:33.810Z,13.60
2023-02-16T20:56:09.107Z,13.60
2023-02-16T20:58:44.448Z,13.50
2023-02-16T21:01:25.044Z,13.50
2023-02-16T21:03:58.988Z,13.50
2023-02-16T21:06:31.545Z,13.50
2023-02-16T21:09:05.778Z,13.50
2023-02-16T21:11:39.437Z,13.50
2023-02-16T21:14:13.380Z,13.50
2023-02-16T21:16:46.167Z,13.50
2023-02-16T21:19:23.238Z,13.50
2023-02-16T21:21:56.256Z,13.40
2023-02-16T21:24:28.973Z,13.40
2023-02-16T21:27:02.115Z,13.40
2023-02-16T21:29:34.910Z,13.40
2023-02-16T21:32:07.728Z,13.40
2023-02-16T21:34:40.487Z,13.40
2023-02-16T21:37:13.102Z,13.40
2023-02-16T21:40:04.125Z,13.40
2023-02-16T21:42:36.780Z,13.30
2023-02-16T21:45:17.951Z,13.30
2023-02-16T21:48:18.107Z,13.30
2023-02-16T21:51:00.472Z,13.30
2023-02-16T21:56:45.505Z,13.30
2023-02-16T21:59:43.401Z,13.30
2023-02-16T22:02:15.961Z,13.30
2023-02-16T22:04:49.256Z,13.30
2023-02-16T22:07:21.630Z,13.30
2023-02-16T22:09:54.420Z,13.30
2023-02-16T22:12:27.032Z,13.30
2023-02-16T22:14:59.591Z,13.20
2023-02-16T22:17:34.620Z,13.20
2023-02-16T22:20:14.315Z,13.20
2023-02-16T22:22:58.012Z,13.20
2023-02-16T22:25:33.051Z,13.20
2023-02-16T22:28:05.912Z,13.10
2023-02-16T22:30:41.153Z,13.10
2023-02-16T22:33:13.971Z,13.10
2023-02-16T22:35:46.743Z,13.10
2023-02-16T22:38:19.435Z,13.10
2023-02-16T22:40:52.016Z,13.10
2023-02-16T22:43:24.627Z,13.10
2023-02-16T22:45:57.288Z,13.10
2023-02-16T22:48:30.036Z,13.00
2023-02-16T22:51:04.658Z,13.00
2023-02-16T22:53:37.459Z,13.00
2023-02-16T22:56:12.683Z,13.00
2023-02-16T22:58:46.527Z,13.00
2023-02-16T23:01:21.541Z,13.00
2023-02-16T23:03:59.284Z,12.90
2023-02-16T23:06:34.673Z,13.00
2023-02-16T23:09:09.694Z,12.90
2023-02-16T23:11:42.601Z,12.90
2023-02-16T23:14:18.655Z,12.90
2023-02-16T23:16:54.740Z,12.90
2023-02-16T23:19:28.034Z,12.90
2023-02-16T23:22:00.764Z,12.90
2023-02-16T23:24:33.488Z,12.90
2023-02-16T23:27:06.257Z,12.90
2023-02-16T23:29:38.932Z,12.90
2023-02-16T23:32:34.090Z,12.90
2023-02-16T23:35:06.987Z,12.80
2023-02-16T23:37:39.832Z,12.80
2023-02-16T23:40:12.791Z,12.80
2023-02-16T23:42:45.297Z,12.80
2023-02-16T23:45:17.983Z,12.80
2023-02-16T23:47:50.728Z,12.70
2023-02-16T23:50:23.858Z,12.70
2023-02-16T23:52:56.628Z,12.70
2023-02-16T23:55:29.309Z,12.70
2023-02-16T23:58:01.982Z,12.70
